createdAt,value
2022-12-31T00:00:13.522Z,11.37
2022-12-31T00:02:40.179Z,11.33
2022-12-31T00:05:07.229Z,11.44
2022-12-31T00:10:00.851Z,11.46
2022-12-31T00:12:27.353Z,11.44
2022-12-31T00:14:53.856Z,11.43
2022-12-31T00:17:20.534Z,11.07
2022-12-31T00:19:46.979Z,11.07
2022-12-31T00:22:13.809Z,11.17
2022-12-31T00:24:42.872Z,11.04
2022-12-31T00:27:12.518Z,11.16
2022-12-31T00:29:39.102Z,11.16
2022-12-31T00:32:05.810Z,11.08
2022-12-31T00:34:33.118Z,11.18
2022-12-31T00:37:05.963Z,11.03
2022-12-31T00:39:42.343Z,10.73
2022-12-31T00:42:08.915Z,10.55
2022-12-31T00:44:35.599Z,10.44
2022-12-31T00:50:30.266Z,10.48
2022-12-31T00:52:56.930Z,10.47
2022-12-31T00:55:45.257Z,10.43
2022-12-31T00:58:11.981Z,10.51
2022-12-31T01:00:38.740Z,10.56
2022-12-31T01:03:25.358Z,10.77
2022-12-31T01:05:51.926Z,10.76
2022-12-31T01:08:27.364Z,10.91
2022-12-31T01:10:54.116Z,10.82
2022-12-31T01:14:16.260Z,10.78
2022-12-31T01:23:22.124Z,10.61
2022-12-31T01:25:48.851Z,10.76
2022-12-31T01:28:15.558Z,10.57
2022-12-31T01:30:42.181Z,10.59
2022-12-31T01:33:33.153Z,10.82
2022-12-31T01:36:26.425Z,10.97
2022-12-31T01:38:55.080Z,11.04
2022-12-31T01:45:13.928Z,10.95
2022-12-31T01:47:47.708Z,11.06
2022-12-31T01:50:29.378Z,10.78
2022-12-31T01:53:01.440Z,10.67
2022-12-31T01:55:28.798Z,10.87
2022-12-31T02:00:57.963Z,10.79
2022-12-31T02:07:18.574Z,10.88
2022-12-31T02:09:48.146Z,10.84
2022-12-31T02:13:10.733Z,10.88
2022-12-31T02:16:22.802Z,10.97
2022-12-31T02:19:23.530Z,11.02
2022-12-31T02:21:59.684Z,10.93
2022-12-31T02:25:17.817Z,11.04
2022-12-31T02:28:02.904Z,10.90
2022-12-31T02:30:33.185Z,10.80
2022-12-31T02:33:15.118Z,10.81
2022-12-31T02:36:03.568Z,10.76
2022-12-31T02:38:37.377Z,10.70
2022-12-31T02:41:14.419Z,10.64
2022-12-31T02:43:47.200Z,10.53
2022-12-31T02:46:23.961Z,10.37
2022-12-31T02:49:42.357Z,10.43
2022-12-31T02:52:14.628Z,10.67
2022-12-31T02:54:55.972Z,10.60
2022-12-31T02:58:00.255Z,10.72
2022-12-31T03:00:28.734Z,10.71
2022-12-31T03:05:51.477Z,10.69
2022-12-31T03:08:22.734Z,10.71
2022-12-31T03:10:55.485Z,10.92
2022-12-31T03:13:22.282Z,11.01
2022-12-31T03:18:29.201Z,11.01
2022-12-31T03:21:39.997Z,10.90
2022-12-31T03:24:06.804Z,10.93
2022-12-31T03:29:17.159Z,10.91
2022-12-31T03:32:09.272Z,10.88
2022-12-31T03:34:35.892Z,10.82
2022-12-31T03:37:43.130Z,10.63
2022-12-31T03:40:11.863Z,10.66
2022-12-31T03:46:12.076Z,10.51
2022-12-31T03:48:38.586Z,10.18
2022-12-31T03:51:05.111Z,10.17
2022-12-31T03:53:31.644Z,10.24
2022-12-31T03:55:58.168Z,10.39
2022-12-31T03:58:30.426Z,10.40
2022-12-31T04:00:57.117Z,10.54
2022-12-31T04:03:23.774Z,10.73
2022-12-31T04:09:00.528Z,10.92
2022-12-31T04:11:27.053Z,10.85
2022-12-31T04:13:53.537Z,10.78
2022-12-31T04:16:29.200Z,10.86
2022-12-31T04:18:57.083Z,10.85
2022-12-31T04:21:35.168Z,10.84
2022-12-31T04:24:02.104Z,10.80
2022-12-31T04:26:29.309Z,10.84
2022-12-31T04:28:57.569Z,10.92
2022-12-31T04:31:27.515Z,11.00
2022-12-31T04:34:02.823Z,10.89
2022-12-31T04:36:32.168Z,10.98
2022-12-31T04:38:58.774Z,10.91
2022-12-31T04:41:25.564Z,10.80
2022-12-31T04:43:54.571Z,10.95
2022-12-31T04:46:29.072Z,11.06
2022-12-31T04:52:01.884Z,11.15
2022-12-31T04:54:46.788Z,11.02
2022-12-31T04:57:45.306Z,10.87
2022-12-31T05:00:12.261Z,11.03
2022-12-31T05:02:38.970Z,10.83
2022-12-31T05:05:06.090Z,10.92
2022-12-31T05:07:32.622Z,10.77
2022-12-31T05:10:11.074Z,10.70
2022-12-31T05:12:37.692Z,10.77
2022-12-31T05:15:13.162Z,10.77
2022-12-31T05:18:06.046Z,10.61
2022-12-31T05:20:33.240Z,10.78
2022-12-31T05:22:59.830Z,10.11
2022-12-31T05:25:26.413Z,10.25
2022-12-31T05:28:00.330Z,10.27
2022-12-31T05:30:26.961Z,10.37
2022-12-31T05:33:00.393Z,10.15
2022-12-31T05:35:27.044Z,10.07
2022-12-31T05:37:53.600Z,9.94
2022-12-31T05:40:20.290Z,10.11
2022-12-31T05:42:55.895Z,9.98
2022-12-31T05:45:28.348Z,10.06
2022-12-31T05:47:57.324Z,10.11
2022-12-31T05:50:23.826Z,10.20
2022-12-31T05:52:50.371Z,10.30
2022-12-31T05:55:17.024Z,10.19
2022-12-31T05:57:43.611Z,10.03
2022-12-31T06:00:10.797Z,10.19
2022-12-31T06:02:37.634Z,10.40
2022-12-31T06:05:10.673Z,10.33
2022-12-31T06:07:55.585Z,10.18
2022-12-31T06:10:29.623Z,10.37
2022-12-31T06:12:56.216Z,10.21
2022-12-31T06:15:22.750Z,10.07
2022-12-31T06:17:49.445Z,10.10
2022-12-31T06:23:03.304Z,10.28
2022-12-31T06:28:59.295Z,10.06
2022-12-31T06:31:25.875Z,10.14
2022-12-31T06:33:52.473Z,10.28
2022-12-31T06:36:21.971Z,10.13
2022-12-31T06:39:39.914Z,10.08
2022-12-31T06:42:06.565Z,9.83
2022-12-31T06:47:28.642Z,9.83
2022-12-31T06:50:28.099Z,9.86
2022-12-31T06:52:54.728Z,9.76
2022-12-31T06:55:24.900Z,9.89
2022-12-31T06:57:51.702Z,9.74
2022-12-31T07:00:21.882Z,9.89
2022-12-31T07:03:18.915Z,10.08
2022-12-31T07:06:36.228Z,10.07
2022-12-31T07:09:38.990Z,10.18
2022-12-31T07:12:13.616Z,10.23
2022-12-31T07:14:46.705Z,10.37
2022-12-31T07:20:39.811Z,10.27
2022-12-31T07:23:24.965Z,10.26
2022-12-31T07:26:07.629Z,10.36
2022-12-31T07:32:47.385Z,10.55
2022-12-31T07:35:35.229Z,10.46
2022-12-31T07:38:27.273Z,10.49
2022-12-31T07:41:12.940Z,9.95
2022-12-31T07:43:53.195Z,10.16
2022-12-31T07:46:29.478Z,10.12
2022-12-31T07:48:56.509Z,10.02
2022-12-31T07:51:23.238Z,10.09
2022-12-31T07:53:49.709Z,10.06
2022-12-31T07:56:16.229Z,10.35
2022-12-31T07:59:24.607Z,10.47
2022-12-31T08:02:10.037Z,10.45
2022-12-31T08:04:44.901Z,10.38
2022-12-31T08:10:58.053Z,10.51
2022-12-31T08:13:25.422Z,10.69
2022-12-31T08:15:52.143Z,10.74
2022-12-31T08:18:19.886Z,10.70
2022-12-31T08:21:17.684Z,10.74
2022-12-31T08:24:07.668Z,10.92
2022-12-31T08:27:06.002Z,11.10
2022-12-31T08:36:46.841Z,11.36
2022-12-31T08:42:30.266Z,11.46
2022-12-31T08:45:06.360Z,11.49
2022-12-31T08:47:49.240Z,11.44
2022-12-31T08:50:18.593Z,11.65
2022-12-31T08:52:45.739Z,11.77
2022-12-31T08:55:14.746Z,11.88
2022-12-31T09:00:50.803Z,11.93
2022-12-31T09:03:33.528Z,11.96
2022-12-31T09:05:59.934Z,12.06
2022-12-31T09:08:46.972Z,12.13
2022-12-31T09:14:50.956Z,12.44
2022-12-31T09:17:26.187Z,12.50
2022-12-31T09:19:53.045Z,12.66
2022-12-31T09:22:29.593Z,12.69
2022-12-31T09:24:56.349Z,12.83
2022-12-31T09:27:43.715Z,12.76
2022-12-31T09:30:14.428Z,12.75
2022-12-31T09:33:11.899Z,12.86
2022-12-31T09:36:13.451Z,12.97
2022-12-31T09:38:50.960Z,13.06
2022-12-31T09:41:33.242Z,13.26
2022-12-31T09:44:05.472Z,13.42
2022-12-31T09:46:50.581Z,13.62
2022-12-31T09:49:47.795Z,13.50
2022-12-31T09:52:40.986Z,13.25
2022-12-31T09:55:07.548Z,13.25
2022-12-31T09:57:39.858Z,13.41
2022-12-31T10:00:35.318Z,13.47
2022-12-31T10:03:16.523Z,13.49
2022-12-31T10:05:58.279Z,13.50
2022-12-31T10:08:43.235Z,13.51
2022-12-31T10:11:41.412Z,13.57
2022-12-31T10:14:16.455Z,13.63
2022-12-31T10:17:09.066Z,13.67
2022-12-31T10:19:44.452Z,13.51
2022-12-31T10:22:34.948Z,13.53
2022-12-31T10:25:38.312Z,13.73
2022-12-31T10:28:47.100Z,13.75
2022-12-31T10:31:48.310Z,13.96
2022-12-31T10:34:36.781Z,13.88
2022-12-31T10:37:20.244Z,13.99
2022-12-31T10:40:06.090Z,14.06
2022-12-31T10:43:03.176Z,14.26
2022-12-31T10:45:57.358Z,14.44
2022-12-31T10:48:53.164Z,14.66
2022-12-31T10:51:33.296Z,14.48
2022-12-31T10:54:11.839Z,14.35
2022-12-31T10:56:59.568Z,14.38
2022-12-31T10:59:44.583Z,14.55
2022-12-31T11:02:29.772Z,14.43
2022-12-31T11:05:05.154Z,14.57
2022-12-31T11:07:55.900Z,14.67
2022-12-31T11:11:18.179Z,14.70
2022-12-31T11:14:23.022Z,14.86
2022-12-31T11:16:56.531Z,14.98
2022-12-31T11:19:53.445Z,15.04
2022-12-31T11:22:29.939Z,14.82
2022-12-31T11:25:15.785Z,15.00
2022-12-31T11:27:52.434Z,14.96
2022-12-31T11:30:50.601Z,14.98
2022-12-31T11:33:29.265Z,14.88
2022-12-31T11:36:34.517Z,15.03
2022-12-31T11:39:30.745Z,15.15
2022-12-31T11:42:14.435Z,14.99
2022-12-31T11:44:47.195Z,14.81
2022-12-31T11:48:28.987Z,14.98
2022-12-31T11:51:20.492Z,15.17
2022-12-31T11:54:14.973Z,15.12
2022-12-31T11:56:46.389Z,14.98
2022-12-31T11:59:19.675Z,14.92
2022-12-31T12:02:29.030Z,14.98
2022-12-31T12:04:58.641Z,14.93
2022-12-31T12:07:26.087Z,15.10
2022-12-31T12:09:54.746Z,15.34
2022-12-31T12:12:21.955Z,15.35
2022-12-31T12:14:53.928Z,15.55
2022-12-31T12:17:28.651Z,15.71
2022-12-31T12:19:55.555Z,15.83
2022-12-31T12:22:26.763Z,15.59
2022-12-31T12:25:05.843Z,15.40
2022-12-31T12:27:34.821Z,15.43
2022-12-31T12:30:25.152Z,15.34
2022-12-31T12:32:55.444Z,15.55
2022-12-31T12:35:32.891Z,15.39
2022-12-31T12:38:05.328Z,15.47
2022-12-31T12:40:58.267Z,15.55
2022-12-31T12:46:29.870Z,15.71
2022-12-31T12:48:59.280Z,15.69
2022-12-31T12:51:33.875Z,15.74
2022-12-31T12:54:24.663Z,15.93
2022-12-31T12:57:15.834Z,15.57
2022-12-31T12:59:56.039Z,15.16
2022-12-31T13:02:22.653Z,15.12
2022-12-31T13:05:24.338Z,15.21
2022-12-31T13:08:03.650Z,14.99
2022-12-31T13:10:48.090Z,14.79
2022-12-31T13:13:23.998Z,14.84
2022-12-31T13:15:59.536Z,15.06
2022-12-31T13:18:40.688Z,15.23
2022-12-31T13:21:41.294Z,15.52
2022-12-31T13:24:18.775Z,15.66
2022-12-31T13:27:09.490Z,15.72
2022-12-31T13:29:38.248Z,15.84
2022-12-31T13:32:07.254Z,15.82
2022-12-31T13:34:36.745Z,15.78
2022-12-31T13:37:09.650Z,15.87
2022-12-31T13:39:38.881Z,15.91
2022-12-31T13:42:10.336Z,15.96
2022-12-31T13:44:41.517Z,15.88
2022-12-31T13:47:45.489Z,15.70
2022-12-31T13:50:38.114Z,15.52
2022-12-31T13:53:29.222Z,15.68
2022-12-31T13:56:07.495Z,15.62
2022-12-31T14:02:08.303Z,15.31
2022-12-31T14:04:43.347Z,15.27
2022-12-31T14:07:22.635Z,15.24
2022-12-31T14:09:49.419Z,15.35
2022-12-31T14:12:55.844Z,15.18
2022-12-31T14:15:34.034Z,15.10
2022-12-31T14:18:20.050Z,15.10
2022-12-31T14:20:59.828Z,14.60
2022-12-31T14:26:57.494Z,14.51
2022-12-31T14:29:48.785Z,14.45
2022-12-31T14:32:47.346Z,14.36
2022-12-31T14:35:36.065Z,14.29
2022-12-31T14:38:18.963Z,14.32
2022-12-31T14:41:04.155Z,14.58
2022-12-31T14:43:40.124Z,14.62
2022-12-31T14:46:34.346Z,14.66
2022-12-31T14:49:22.201Z,14.60
2022-12-31T14:51:48.716Z,14.58
2022-12-31T14:54:29.040Z,14.68
2022-12-31T14:56:56.067Z,14.77
2022-12-31T14:59:35.673Z,14.77
2022-12-31T15:02:32.403Z,14.90
2022-12-31T15:05:14.901Z,14.95
2022-12-31T15:07:47.489Z,15.10
2022-12-31T15:10:47.305Z,15.03
2022-12-31T15:13:32.059Z,15.04
2022-12-31T15:16:13.489Z,14.92
2022-12-31T15:18:49.301Z,14.85
2022-12-31T15:21:51.050Z,14.63
2022-12-31T15:24:22.839Z,14.60
2022-12-31T15:26:54.947Z,14.38
2022-12-31T15:29:43.534Z,14.50
2022-12-31T15:32:38.741Z,14.57
2022-12-31T15:35:26.695Z,14.48
2022-12-31T15:38:11.525Z,14.43
2022-12-31T15:40:46.474Z,14.09
2022-12-31T15:43:18.425Z,14.00
2022-12-31T15:45:46.592Z,14.12
2022-12-31T15:48:24.280Z,13.89
2022-12-31T15:50:52.667Z,13.77
2022-12-31T15:53:39.273Z,13.98
2022-12-31T15:56:18.812Z,13.64
2022-12-31T15:58:47.503Z,13.48
2022-12-31T16:01:21.199Z,13.66
2022-12-31T16:04:15.267Z,13.73
2022-12-31T16:06:44.888Z,13.66
2022-12-31T16:09:25.809Z,13.48
2022-12-31T16:11:53.737Z,13.43
2022-12-31T16:14:25.909Z,13.32
2022-12-31T16:16:55.201Z,13.19
2022-12-31T16:19:28.610Z,13.19
2022-12-31T16:21:57.059Z,13.15
2022-12-31T16:24:29.134Z,13.08
2022-12-31T16:26:58.531Z,13.05
2022-12-31T16:29:25.107Z,13.09
2022-12-31T16:31:52.893Z,13.03
2022-12-31T16:34:21.872Z,12.97
2022-12-31T16:36:56.693Z,12.97
2022-12-31T16:39:24.997Z,12.87
2022-12-31T16:41:51.939Z,12.84
2022-12-31T16:44:26.729Z,12.87
2022-12-31T16:46:58.887Z,12.92
2022-12-31T16:49:26.169Z,12.96
2022-12-31T16:51:56.129Z,12.92
2022-12-31T16:54:38.659Z,12.88
2022-12-31T16:57:05.809Z,12.83
2022-12-31T16:59:36.564Z,12.94
2022-12-31T17:02:14.511Z,12.85
2022-12-31T17:04:46.041Z,12.70
2022-12-31T17:07:31.633Z,12.79
2022-12-31T17:10:07.007Z,12.68
2022-12-31T17:13:17.510Z,12.60
2022-12-31T17:15:43.207Z,12.59
2022-12-31T17:18:21.107Z,12.53
2022-12-31T17:20:49.276Z,12.52
2022-12-31T17:23:35.483Z,12.72
2022-12-31T17:26:20.590Z,12.71
2022-12-31T17:28:50.242Z,12.61
2022-12-31T17:31:32.339Z,12.65
2022-12-31T17:34:14.173Z,12.58
2022-12-31T17:36:41.961Z,12.45
2022-12-31T17:39:31.690Z,12.26
2022-12-31T17:42:01.090Z,12.26
2022-12-31T17:44:28.143Z,12.11
2022-12-31T17:46:55.408Z,12.16
2022-12-31T17:49:32.372Z,12.25
2022-12-31T17:52:01.312Z,12.38
2022-12-31T17:54:30.802Z,12.33
2022-12-31T17:56:57.674Z,12.44
2022-12-31T17:59:25.748Z,12.04
2022-12-31T18:01:52.384Z,12.14
2022-12-31T18:04:19.269Z,12.21
2022-12-31T18:06:45.943Z,12.13
2022-12-31T18:09:15.212Z,12.19
2022-12-31T18:11:42.298Z,12.14
2022-12-31T18:14:12.505Z,12.05
2022-12-31T18:16:38.995Z,11.99
2022-12-31T18:19:23.639Z,11.99
2022-12-31T18:21:59.255Z,12.00
2022-12-31T18:24:28.872Z,11.95
2022-12-31T18:26:58.211Z,12.02
2022-12-31T18:29:24.771Z,11.91
2022-12-31T18:31:53.810Z,11.80
2022-12-31T18:34:20.391Z,11.92
2022-12-31T18:36:48.803Z,11.90
2022-12-31T18:39:17.555Z,11.99
2022-12-31T18:41:45.807Z,12.07
2022-12-31T18:44:18.046Z,12.10
2022-12-31T18:46:44.696Z,12.13
2022-12-31T18:49:11.270Z,12.18
2022-12-31T18:51:37.915Z,12.14
2022-12-31T18:54:04.738Z,12.14
2022-12-31T18:56:31.291Z,12.14
2022-12-31T18:58:57.775Z,12.15
2022-12-31T19:01:30.179Z,12.04
2022-12-31T19:04:01.941Z,11.71
2022-12-31T19:06:30.367Z,11.76
2022-12-31T19:08:56.880Z,11.86
2022-12-31T19:11:23.936Z,11.76
2022-12-31T19:13:50.767Z,11.84
2022-12-31T19:16:17.301Z,11.86
2022-12-31T19:18:44.143Z,11.80
2022-12-31T19:21:22.499Z,11.81
2022-12-31T19:23:49.745Z,11.76
2022-12-31T19:26:19.158Z,11.77
2022-12-31T19:28:46.748Z,11.76
2022-12-31T19:31:16.889Z,11.81
2022-12-31T19:33:46.110Z,11.85
2022-12-31T19:36:17.200Z,11.79
2022-12-31T19:38:44.253Z,11.76
2022-12-31T19:41:16.324Z,11.71
2022-12-31T19:43:42.910Z,11.69
2022-12-31T19:46:15.526Z,11.79
2022-12-31T19:48:42.693Z,11.88
2022-12-31T19:51:16.332Z,11.88
2022-12-31T19:53:46.204Z,11.86
2022-12-31T19:56:14.836Z,11.88
2022-12-31T19:58:43.498Z,11.94
2022-12-31T20:01:21.535Z,12.01
2022-12-31T20:03:48.643Z,11.98
2022-12-31T20:06:15.263Z,11.90
2022-12-31T20:08:41.886Z,11.96
2022-12-31T20:11:17.255Z,11.72
2022-12-31T20:13:44.077Z,11.62
2022-12-31T20:16:13.047Z,11.64
2022-12-31T20:18:40.994Z,11.81
2022-12-31T20:21:16.674Z,11.87
2022-12-31T20:23:43.708Z,11.82
2022-12-31T20:26:10.660Z,11.72
2022-12-31T20:28:37.565Z,11.63
2022-12-31T20:31:08.648Z,11.66
2022-12-31T20:33:35.263Z,11.59
2022-12-31T20:36:02.875Z,11.70
2022-12-31T20:38:29.396Z,11.79
2022-12-31T20:40:55.953Z,11.82
2022-12-31T20:43:22.411Z,11.89
2022-12-31T20:45:48.918Z,11.88
2022-12-31T20:48:15.449Z,11.69
2022-12-31T20:50:41.962Z,11.70
2022-12-31T20:53:08.547Z,11.70
2022-12-31T20:55:37.655Z,11.65
2022-12-31T20:58:04.151Z,11.53
2022-12-31T21:00:30.643Z,11.56
2022-12-31T21:03:08.254Z,11.70
2022-12-31T21:05:48.115Z,11.55
2022-12-31T21:08:14.825Z,11.66
2022-12-31T21:10:41.343Z,11.50
2022-12-31T21:13:10.315Z,11.42
2022-12-31T21:15:37.071Z,11.57
2022-12-31T21:18:05.113Z,11.60
2022-12-31T21:20:36.575Z,11.65
2022-12-31T21:23:05.705Z,11.59
2022-12-31T21:25:32.302Z,11.59
2022-12-31T21:27:58.841Z,11.56
2022-12-31T21:30:25.432Z,11.60
2022-12-31T21:32:51.946Z,11.65
2022-12-31T21:38:07.090Z,11.61
2022-12-31T21:40:38.396Z,11.57
2022-12-31T21:43:05.048Z,11.71
2022-12-31T21:45:31.508Z,11.69
2022-12-31T21:48:01.531Z,11.64
2022-12-31T21:50:28.054Z,11.67
2022-12-31T21:52:54.510Z,11.63
2022-12-31T21:55:20.973Z,11.48
2022-12-31T21:58:24.395Z,11.57
2022-12-31T22:00:43.578Z,11.58
2022-12-31T22:03:11.817Z,11.69
2022-12-31T22:05:38.920Z,11.47
2022-12-31T22:08:05.399Z,11.37
2022-12-31T22:10:37.218Z,11.42
2022-12-31T22:13:04.271Z,11.41
2022-12-31T22:15:31.551Z,11.36
2022-12-31T22:17:58.077Z,11.19
2022-12-31T22:20:27.549Z,11.09
2022-12-31T22:22:55.068Z,11.00
2022-12-31T22:25:21.675Z,10.89
2022-12-31T22:28:04.459Z,10.91
2022-12-31T22:30:34.855Z,10.88
2022-12-31T22:33:01.345Z,10.85
2022-12-31T22:35:27.829Z,11.03
2022-12-31T22:37:57.569Z,11.20
2022-12-31T22:40:26.782Z,11.40
2022-12-31T22:42:55.052Z,11.30
2022-12-31T22:45:21.534Z,11.29
2022-12-31T22:47:48.009Z,11.24
2022-12-31T22:50:14.668Z,11.16
2022-12-31T22:52:41.158Z,11.10
2022-12-31T22:55:08.303Z,11.10
2022-12-31T22:57:34.852Z,11.13
2022-12-31T23:00:01.403Z,11.10
2022-12-31T23:02:28.046Z,11.00
2022-12-31T23:05:15.118Z,10.98
2022-12-31T23:07:42.236Z,11.00
2022-12-31T23:10:10.412Z,11.09
2022-12-31T23:12:36.978Z,11.12
2022-12-31T23:15:03.799Z,11.10
2022-12-31T23:17:32.043Z,11.14
2022-12-31T23:20:02.253Z,11.17
2022-12-31T23:22:28.787Z,11.18
2022-12-31T23:24:55.360Z,11.31
2022-12-31T23:27:21.865Z,11.38
2022-12-31T23:29:48.555Z,11.41
2022-12-31T23:32:16.246Z,11.55
2022-12-31T23:34:43.674Z,11.45
2022-12-31T23:37:10.653Z,11.43
2022-12-31T23:39:37.146Z,11.40
2022-12-31T23:42:03.778Z,11.48
2022-12-31T23:44:30.275Z,11.49
2022-12-31T23:46:56.831Z,11.43
2022-12-31T23:49:23.420Z,11.42
2022-12-31T23:51:49.937Z,11.20
2022-12-31T23:54:16.533Z,11.25
2022-12-31T23:56:43.329Z,11.15
2022-12-31T23:59:11.065Z,11.17
